createdAt,value
2018-03-24T00:01:44.916Z,15.35
2018-03-24T00:04:11.675Z,15.33
2018-03-24T00:06:38.372Z,15.32
2018-03-24T00:09:05.056Z,15.34
2018-03-24T00:11:37.940Z,15.33
2018-03-24T00:14:04.580Z,15.32
2018-03-24T00:16:31.286Z,15.31
2018-03-24T00:18:58.023Z,15.30
2018-03-24T00:21:24.723Z,15.28
2018-03-24T00:23:51.351Z,15.27
2018-03-24T00:26:18.028Z,15.26
2018-03-24T00:28:44.681Z,15.25
2018-03-24T00:31:11.326Z,15.27
2018-03-24T00:33:37.962Z,15.21
2018-03-24T00:36:05.988Z,15.21
2018-03-24T00:38:31.341Z,15.23
2018-03-24T00:40:57.943Z,15.27
2018-03-24T00:43:24.581Z,15.27
2018-03-24T00:45:51.345Z,15.24
2018-03-24T00:48:25.045Z,15.20
2018-03-24T00:50:49.283Z,15.18
2018-03-24T00:53:15.982Z,15.21
2018-03-24T00:55:42.690Z,15.18
2018-03-24T00:58:09.332Z,15.16
2018-03-24T01:00:36.114Z,15.16
2018-03-24T01:03:02.744Z,15.16
2018-03-24T01:05:29.380Z,15.14
2018-03-24T01:07:56.088Z,15.14
2018-03-24T01:10:22.767Z,15.10
2018-03-24T01:12:51.318Z,15.10
2018-03-24T01:15:16.034Z,15.08
2018-03-24T01:17:42.721Z,15.08
2018-03-24T01:20:09.352Z,15.04
2018-03-24T01:22:35.996Z,15.09
2018-03-24T01:25:02.801Z,15.03
2018-03-24T01:27:29.441Z,15.05
2018-03-24T01:29:56.044Z,15.02
2018-03-24T01:32:22.716Z,14.98
2018-03-24T01:34:49.352Z,15.00
2018-03-24T01:37:15.995Z,14.99
2018-03-24T01:39:44.178Z,14.98
2018-03-24T01:42:09.305Z,14.96
2018-03-24T01:44:35.945Z,14.94
2018-03-24T01:47:02.636Z,14.94
2018-03-24T01:49:29.273Z,14.93
2018-03-24T01:51:56.001Z,14.92
2018-03-24T01:54:22.712Z,14.91
2018-03-24T01:56:49.310Z,14.90
2018-03-24T01:59:15.979Z,14.95
2018-03-24T02:01:42.621Z,14.67
2018-03-24T02:04:11.399Z,14.94
2018-03-24T02:06:35.941Z,15.05
2018-03-24T02:09:02.573Z,14.98
2018-03-24T02:11:29.177Z,14.96
2018-03-24T02:13:55.991Z,14.94
2018-03-24T02:16:22.548Z,14.89
2018-03-24T02:18:49.219Z,14.84
2018-03-24T02:21:15.892Z,14.81
2018-03-24T02:23:42.577Z,14.83
2018-03-24T02:26:09.294Z,14.79
2018-03-24T02:28:35.962Z,14.77
2018-03-24T02:31:02.578Z,14.76
2018-03-24T02:33:29.302Z,14.75
2018-03-24T02:35:55.940Z,14.76
2018-03-24T02:38:22.568Z,14.73
2018-03-24T02:40:49.171Z,14.74
2018-03-24T02:43:15.846Z,14.72
2018-03-24T02:45:42.535Z,14.73
2018-03-24T02:48:09.202Z,14.74
2018-03-24T02:50:35.832Z,14.68
2018-03-24T02:53:02.470Z,14.68
2018-03-24T02:55:29.121Z,14.70
2018-03-24T02:57:57.252Z,14.69
2018-03-24T03:00:22.378Z,14.68
2018-03-24T03:02:49.095Z,14.66
2018-03-24T03:05:15.692Z,14.65
2018-03-24T03:07:42.392Z,14.64
2018-03-24T03:10:09.006Z,14.64
2018-03-24T03:12:35.674Z,14.64
2018-03-24T03:15:02.336Z,14.62
2018-03-24T03:17:29.005Z,14.62
2018-03-24T03:19:55.695Z,14.59
2018-03-24T03:22:23.617Z,14.58
2018-03-24T03:24:49.027Z,14.58
2018-03-24T03:27:15.634Z,14.58
2018-03-24T03:29:42.401Z,14.60
2018-03-24T03:32:09.041Z,14.58
2018-03-24T03:34:35.683Z,14.56
2018-03-24T03:37:02.292Z,14.50
2018-03-24T03:39:29.013Z,14.54
2018-03-24T03:41:55.632Z,14.50
2018-03-24T03:44:22.278Z,14.48
2018-03-24T03:46:48.920Z,14.50
2018-03-24T03:49:15.599Z,14.54
2018-03-24T03:51:42.392Z,14.56
2018-03-24T03:54:09.025Z,14.54
2018-03-24T03:56:35.669Z,14.52
2018-03-24T03:59:02.384Z,14.48
2018-03-24T04:01:29.005Z,14.44
2018-03-24T04:03:55.764Z,14.46
2018-03-24T04:06:25.522Z,14.41
2018-03-24T04:08:52.155Z,14.41
2018-03-24T04:11:18.765Z,14.43
2018-03-24T04:13:45.391Z,14.41
2018-03-24T04:16:12.066Z,14.40
2018-03-24T04:18:40.132Z,14.41
2018-03-24T04:21:05.378Z,14.38
2018-03-24T04:23:31.987Z,14.37
2018-03-24T04:25:58.634Z,14.36
2018-03-24T04:28:25.374Z,14.36
2018-03-24T04:30:51.973Z,14.35
2018-03-24T04:33:18.712Z,14.33
2018-03-24T04:35:45.334Z,14.34
2018-03-24T04:38:12.075Z,14.30
2018-03-24T04:40:38.710Z,14.30
2018-03-24T04:43:05.695Z,14.31
2018-03-24T04:45:32.415Z,14.28
2018-03-24T04:47:59.047Z,14.30
2018-03-24T04:50:27.728Z,14.27
2018-03-24T04:52:52.343Z,14.29
2018-03-24T04:55:21.929Z,14.24
2018-03-24T04:57:48.606Z,14.26
2018-03-24T05:00:15.326Z,14.23
2018-03-24T05:02:41.958Z,14.24
2018-03-24T05:05:12.047Z,14.24
2018-03-24T05:07:41.601Z,14.20
2018-03-24T05:10:08.295Z,14.21
2018-03-24T05:12:34.972Z,14.20
2018-03-24T05:15:01.638Z,14.16
2018-03-24T05:17:28.380Z,14.13
2018-03-24T05:19:55.053Z,14.15
2018-03-24T05:22:21.828Z,14.14
2018-03-24T05:24:48.497Z,14.14
2018-03-24T05:27:18.555Z,14.13
2018-03-24T05:29:48.068Z,14.10
2018-03-24T05:32:15.940Z,14.12
2018-03-24T05:34:41.375Z,14.14
2018-03-24T05:37:07.980Z,14.19
2018-03-24T05:39:34.616Z,14.13
2018-03-24T05:42:01.335Z,14.10
2018-03-24T05:44:31.388Z,14.08
2018-03-24T05:46:58.075Z,14.08
2018-03-24T05:49:24.700Z,14.06
2018-03-24T05:51:51.425Z,14.07
2018-03-24T05:54:18.063Z,14.02
2018-03-24T05:56:44.656Z,14.01
2018-03-24T05:59:11.304Z,13.99
2018-03-24T06:01:37.940Z,14.00
2018-03-24T06:04:04.730Z,13.97
2018-03-24T06:06:31.381Z,13.96
2018-03-24T06:08:58.107Z,13.94
2018-03-24T06:11:26.114Z,13.98
2018-03-24T06:13:51.442Z,13.96
2018-03-24T06:16:18.126Z,13.95
2018-03-24T06:18:46.036Z,13.95
2018-03-24T06:21:11.434Z,13.94
2018-03-24T06:23:38.108Z,13.92
2018-03-24T06:26:05.491Z,13.91
2018-03-24T06:28:32.244Z,13.91
2018-03-24T06:31:01.885Z,13.90
2018-03-24T06:33:28.560Z,13.90
2018-03-24T06:35:55.194Z,13.91
2018-03-24T06:38:21.864Z,13.91
2018-03-24T06:40:48.517Z,13.87
2018-03-24T06:43:20.530Z,13.86
2018-03-24T06:45:45.100Z,13.85
2018-03-24T06:48:11.740Z,13.83
2018-03-24T06:50:38.425Z,13.84
2018-03-24T06:53:05.071Z,13.81
2018-03-24T06:55:31.736Z,13.84
2018-03-24T06:57:58.421Z,13.80
2018-03-24T07:00:25.014Z,13.81
2018-03-24T07:02:51.735Z,13.79
2018-03-24T07:05:18.501Z,13.77
2018-03-24T07:07:45.134Z,13.75
2018-03-24T07:10:13.171Z,13.75
2018-03-24T07:12:38.402Z,13.73
2018-03-24T07:15:05.036Z,13.70
2018-03-24T07:17:31.681Z,13.70
2018-03-24T07:19:59.661Z,13.71
2018-03-24T07:22:24.998Z,13.69
2018-03-24T07:24:51.679Z,13.70
2018-03-24T07:27:18.279Z,13.70
2018-03-24T07:29:45.055Z,13.73
2018-03-24T07:32:11.765Z,13.73
2018-03-24T07:34:38.404Z,13.65
2018-03-24T07:37:07.092Z,13.62
2018-03-24T07:39:33.824Z,13.61
2018-03-24T07:42:00.427Z,13.63
2018-03-24T07:44:29.432Z,13.61
2018-03-24T07:46:53.906Z,13.62
2018-03-24T07:49:20.499Z,13.58
2018-03-24T07:51:47.257Z,13.58
2018-03-24T07:54:13.935Z,13.56
2018-03-24T07:56:40.529Z,13.56
2018-03-24T07:59:07.213Z,13.56
2018-03-24T08:01:33.811Z,13.58
2018-03-24T08:04:00.479Z,13.54
2018-03-24T08:06:28.485Z,13.50
2018-03-24T08:08:54.877Z,13.53
2018-03-24T08:11:22.792Z,13.45
2018-03-24T08:13:48.154Z,13.50
2018-03-24T08:16:14.806Z,13.48
2018-03-24T08:18:41.435Z,13.49
2018-03-24T08:21:08.176Z,13.43
2018-03-24T08:23:34.818Z,13.40
2018-03-24T08:26:01.419Z,13.38
2018-03-24T08:28:28.108Z,13.41
2018-03-24T08:30:54.736Z,13.37
2018-03-24T08:33:21.383Z,13.38
2018-03-24T08:35:47.995Z,13.39
2018-03-24T08:38:14.621Z,13.34
2018-03-24T08:40:41.291Z,13.36
2018-03-24T08:43:07.894Z,13.34
2018-03-24T08:45:34.572Z,13.32
2018-03-24T08:48:01.209Z,13.31
2018-03-24T08:50:27.950Z,13.29
2018-03-24T08:52:54.555Z,13.24
2018-03-24T08:55:21.237Z,13.29
2018-03-24T08:57:47.840Z,13.23
2018-03-24T09:00:14.484Z,13.22
2018-03-24T09:02:41.125Z,13.21
2018-03-24T09:05:07.802Z,13.17
2018-03-24T09:07:34.400Z,13.20
2018-03-24T09:10:01.078Z,13.18
2018-03-24T09:12:27.703Z,13.17
2018-03-24T09:14:54.342Z,13.14
2018-03-24T09:17:21.010Z,13.17
2018-03-24T09:19:47.655Z,13.12
2018-03-24T09:22:14.318Z,13.14
2018-03-24T09:24:40.999Z,13.11
2018-03-24T09:27:07.699Z,13.02
2018-03-24T09:29:34.369Z,13.09
2018-03-24T09:32:01.010Z,13.05
2018-03-24T09:34:27.653Z,13.03
2018-03-24T09:36:54.333Z,13.10
2018-03-24T09:39:21.063Z,13.06
2018-03-24T09:41:47.724Z,13.05
2018-03-24T09:44:14.340Z,13.01
2018-03-24T09:46:42.375Z,12.97
2018-03-24T09:49:07.690Z,12.97
2018-03-24T09:51:35.691Z,12.96
2018-03-24T09:54:01.026Z,12.95
2018-03-24T09:56:27.751Z,12.96
2018-03-24T09:58:54.430Z,12.94
2018-03-24T10:01:23.627Z,12.88
2018-03-24T10:03:50.266Z,12.80
2018-03-24T10:06:16.923Z,12.77
2018-03-24T10:08:43.608Z,12.85
2018-03-24T10:11:10.257Z,12.52
2018-03-24T10:13:36.918Z,13.18
2018-03-24T10:16:05.034Z,13.24
2018-03-24T10:18:30.385Z,13.14
2018-03-24T10:20:57.161Z,13.15
2018-03-24T10:23:23.803Z,13.09
2018-03-24T10:25:50.442Z,13.00
2018-03-24T10:28:17.081Z,12.90
2018-03-24T10:30:46.801Z,12.90
2018-03-24T10:33:13.452Z,12.77
2018-03-24T10:35:40.168Z,12.82
2018-03-24T10:38:06.815Z,12.71
2018-03-24T10:40:33.452Z,12.73
2018-03-24T10:43:00.116Z,12.68
2018-03-24T10:45:26.797Z,12.67
2018-03-24T10:47:55.237Z,12.74
2018-03-24T10:50:20.084Z,12.54
2018-03-24T10:52:46.724Z,12.60
2018-03-24T10:55:13.500Z,12.62
2018-03-24T10:57:40.209Z,12.66
2018-03-24T11:00:08.910Z,12.60
2018-03-24T11:02:35.577Z,12.59
2018-03-24T11:05:02.200Z,12.66
2018-03-24T11:07:30.443Z,12.59
2018-03-24T11:09:55.589Z,12.57
2018-03-24T11:12:23.564Z,12.53
2018-03-24T11:14:48.795Z,12.56
2018-03-24T11:17:15.518Z,12.53
2018-03-24T11:19:42.126Z,12.58
2018-03-24T11:22:10.146Z,12.60
2018-03-24T11:24:35.446Z,12.58
2018-03-24T11:27:02.104Z,12.57
2018-03-24T11:29:28.856Z,12.64
2018-03-24T11:31:55.456Z,12.70
2018-03-24T11:34:22.109Z,12.72
2018-03-24T11:36:48.792Z,12.72
2018-03-24T11:39:15.523Z,12.67
2018-03-24T11:41:43.480Z,12.75
2018-03-24T11:44:08.856Z,12.69
2018-03-24T11:46:36.971Z,12.65
2018-03-24T11:49:02.249Z,12.78
2018-03-24T11:51:29.003Z,12.80
2018-03-24T11:54:00.990Z,12.93
2018-03-24T11:56:25.377Z,13.06
2018-03-24T11:58:52.044Z,13.11
2018-03-24T12:01:18.681Z,13.20
2018-03-24T12:03:45.322Z,13.25
2018-03-24T12:06:11.961Z,13.31
2018-03-24T12:08:40.594Z,13.30
2018-03-24T12:11:06.309Z,13.34
2018-03-24T12:13:31.887Z,13.38
2018-03-24T12:15:58.523Z,13.42
2018-03-24T12:18:30.412Z,13.41
2018-03-24T12:20:57.099Z,13.44
2018-03-24T12:23:23.766Z,13.44
2018-03-24T12:25:52.366Z,13.44
2018-03-24T12:28:21.453Z,13.51
2018-03-24T12:30:48.125Z,13.46
2018-03-24T12:33:14.794Z,13.51
2018-03-24T12:35:41.485Z,13.53
2018-03-24T12:38:08.150Z,13.58
2018-03-24T12:40:34.739Z,13.59
2018-03-24T12:43:01.380Z,13.64
2018-03-24T12:45:28.042Z,13.63
2018-03-24T12:47:54.753Z,13.63
2018-03-24T12:50:23.536Z,13.64
2018-03-24T12:52:50.215Z,13.71
2018-03-24T12:55:16.897Z,13.72
2018-03-24T12:57:43.574Z,13.75
2018-03-24T13:00:10.175Z,13.79
2018-03-24T13:02:36.867Z,13.79
2018-03-24T13:05:03.541Z,13.84
2018-03-24T13:07:30.181Z,13.87
2018-03-24T13:09:56.907Z,13.93
2018-03-24T13:12:23.503Z,13.93
2018-03-24T13:14:51.293Z,13.99
2018-03-24T13:17:17.960Z,14.01
2018-03-24T13:19:44.734Z,14.08
2018-03-24T13:22:11.398Z,14.10
2018-03-24T13:24:38.129Z,14.14
2018-03-24T13:27:04.726Z,14.18
2018-03-24T13:29:31.460Z,14.19
2018-03-24T13:31:58.102Z,14.23
2018-03-24T13:34:24.838Z,14.27
2018-03-24T13:36:51.476Z,14.29
2018-03-24T13:39:18.159Z,14.33
2018-03-24T13:41:44.885Z,14.37
2018-03-24T13:44:14.421Z,14.42
2018-03-24T13:46:42.344Z,14.44
2018-03-24T13:49:07.811Z,14.47
2018-03-24T13:51:34.480Z,14.50
2018-03-24T13:54:01.126Z,14.54
2018-03-24T13:56:27.758Z,14.61
2018-03-24T13:58:54.427Z,14.62
2018-03-24T14:01:21.106Z,14.67
2018-03-24T14:03:47.790Z,14.68
2018-03-24T14:06:14.454Z,14.72
2018-03-24T14:08:41.210Z,14.73
2018-03-24T14:11:07.898Z,14.77
2018-03-24T14:13:35.907Z,14.77
2018-03-24T14:16:01.370Z,14.84
2018-03-24T14:18:29.191Z,14.84
2018-03-24T14:20:54.729Z,14.91
2018-03-24T14:23:21.423Z,14.94
2018-03-24T14:25:48.052Z,14.99
2018-03-24T14:28:14.776Z,15.03
2018-03-24T14:30:41.447Z,15.09
2018-03-24T14:33:08.130Z,15.11
2018-03-24T14:35:34.726Z,15.16
2018-03-24T14:38:01.434Z,15.20
2018-03-24T14:40:28.080Z,15.26
2018-03-24T14:42:54.755Z,15.27
2018-03-24T14:45:21.437Z,15.32
2018-03-24T14:47:48.101Z,15.34
2018-03-24T14:50:14.785Z,15.37
2018-03-24T14:52:41.386Z,15.43
2018-03-24T14:55:08.067Z,15.45
2018-03-24T14:57:37.629Z,15.46
2018-03-24T15:00:04.867Z,15.46
2018-03-24T15:02:33.073Z,15.48
2018-03-24T15:04:58.261Z,15.50
2018-03-24T15:07:24.900Z,15.49
2018-03-24T15:09:51.621Z,15.49
2018-03-24T15:12:18.223Z,15.47
2018-03-24T15:14:45.019Z,15.50
2018-03-24T15:17:11.716Z,15.54
2018-03-24T15:19:38.430Z,15.54
2018-03-24T15:22:05.102Z,15.58
2018-03-24T15:24:31.790Z,15.59
2018-03-24T15:26:58.418Z,15.57
2018-03-24T15:29:25.113Z,15.66
2018-03-24T15:31:51.756Z,15.63
2018-03-24T15:34:21.620Z,15.67
2018-03-24T15:36:49.385Z,15.66
2018-03-24T15:39:16.313Z,15.68
2018-03-24T15:41:41.568Z,15.68
2018-03-24T15:44:08.753Z,15.69
2018-03-24T15:46:35.355Z,15.74
2018-03-24T15:49:02.068Z,15.74
2018-03-24T15:51:28.756Z,15.72
2018-03-24T15:53:55.487Z,15.76
2018-03-24T15:56:22.255Z,15.75
2018-03-24T15:58:48.917Z,15.76
2018-03-24T16:01:17.833Z,15.76
2018-03-24T16:03:44.513Z,15.78
2018-03-24T16:06:11.195Z,15.81
2018-03-24T16:08:37.879Z,15.77
2018-03-24T16:11:04.541Z,15.82
2018-03-24T16:13:31.136Z,15.80
2018-03-24T16:15:57.819Z,15.83
2018-03-24T16:18:24.530Z,15.84
2018-03-24T16:20:51.233Z,15.85
2018-03-24T16:23:17.902Z,15.83
2018-03-24T16:25:44.600Z,15.86
2018-03-24T16:28:11.231Z,15.85
2018-03-24T16:30:37.888Z,15.84
2018-03-24T16:33:04.520Z,15.84
2018-03-24T16:35:31.180Z,15.82
2018-03-24T16:37:57.971Z,15.82
2018-03-24T16:40:24.661Z,15.82
2018-03-24T16:42:51.295Z,15.83
2018-03-24T16:45:18.035Z,15.83
2018-03-24T16:47:44.709Z,15.81
2018-03-24T16:50:11.441Z,15.81
2018-03-24T16:52:38.073Z,15.82
2018-03-24T16:55:04.759Z,15.83
2018-03-24T16:57:31.436Z,15.78
2018-03-24T16:59:58.108Z,15.83
2018-03-24T17:02:24.752Z,15.80
2018-03-24T17:04:51.533Z,15.80
2018-03-24T17:07:22.514Z,15.79
2018-03-24T17:09:47.848Z,15.78
2018-03-24T17:12:14.513Z,15.78
2018-03-24T17:14:41.248Z,15.75
2018-03-24T17:17:07.849Z,15.74
2018-03-24T17:19:34.558Z,15.72
2018-03-24T17:22:04.640Z,15.75
2018-03-24T17:24:31.374Z,15.72
2018-03-24T17:26:58.099Z,15.73
2018-03-24T17:29:24.701Z,15.71
2018-03-24T17:31:54.455Z,15.71
2018-03-24T17:34:21.053Z,15.72
2018-03-24T17:36:47.730Z,15.70
2018-03-24T17:39:15.433Z,15.69
2018-03-24T17:41:41.081Z,15.70
2018-03-24T17:44:07.715Z,15.68
2018-03-24T17:46:34.359Z,15.68
2018-03-24T17:49:01.020Z,15.67
2018-03-24T17:51:27.759Z,15.69
2018-03-24T17:53:54.437Z,15.69
2018-03-24T17:56:21.094Z,15.69
2018-03-24T17:58:47.766Z,15.70
2018-03-24T18:01:14.458Z,15.68
2018-03-24T18:03:41.045Z,15.68
2018-03-24T18:06:07.811Z,15.65
2018-03-24T18:08:34.407Z,15.69
2018-03-24T18:11:01.133Z,15.74
2018-03-24T18:13:27.920Z,15.68
2018-03-24T18:15:54.508Z,15.72
2018-03-24T18:18:21.185Z,15.88
2018-03-24T18:20:47.840Z,15.96
2018-03-24T18:23:14.554Z,15.94
2018-03-24T18:25:41.242Z,15.97
2018-03-24T18:28:07.884Z,15.88
2018-03-24T18:30:34.627Z,15.87
2018-03-24T18:33:01.243Z,15.82
2018-03-24T18:35:27.953Z,15.79
2018-03-24T18:37:54.556Z,15.78
2018-03-24T18:40:21.200Z,15.78
2018-03-24T18:42:47.878Z,15.75
2018-03-24T18:45:14.503Z,15.74
2018-03-24T18:47:42.369Z,15.73
2018-03-24T18:50:09.014Z,15.75
2018-03-24T18:52:38.955Z,15.76
2018-03-24T18:55:05.669Z,15.77
2018-03-24T18:57:32.307Z,15.73
2018-03-24T18:59:59.025Z,15.72
2018-03-24T19:02:25.625Z,15.73
2018-03-24T19:04:52.252Z,15.69
2018-03-24T19:07:18.993Z,15.72
2018-03-24T19:09:45.594Z,15.74
2018-03-24T19:12:12.373Z,15.71
2018-03-24T19:14:39.040Z,15.70
2018-03-24T19:17:05.679Z,15.69
2018-03-24T19:19:35.065Z,15.70
2018-03-24T19:22:01.844Z,15.71
2018-03-24T19:24:28.513Z,15.70
2018-03-24T19:26:55.109Z,15.68
2018-03-24T19:29:21.996Z,15.70
2018-03-24T19:31:48.637Z,15.71
2018-03-24T19:34:15.324Z,15.69
2018-03-24T19:36:42.055Z,15.63
2018-03-24T19:39:08.725Z,15.69
2018-03-24T19:41:35.372Z,15.72
2018-03-24T19:44:02.480Z,15.72
2018-03-24T19:46:29.126Z,15.71
2018-03-24T19:48:55.835Z,15.72
2018-03-24T19:51:22.468Z,15.71
2018-03-24T19:53:49.146Z,15.72
2018-03-24T19:56:15.792Z,15.71
2018-03-24T19:58:42.472Z,15.72
2018-03-24T20:01:09.201Z,15.71
2018-03-24T20:03:35.846Z,15.69
2018-03-24T20:06:02.527Z,15.71
2018-03-24T20:08:29.194Z,15.71
2018-03-24T20:10:55.789Z,15.71
2018-03-24T20:13:22.513Z,15.72
2018-03-24T20:15:49.204Z,15.72
2018-03-24T20:18:15.885Z,15.70
2018-03-24T20:20:45.081Z,15.70
2018-03-24T20:23:09.640Z,15.71
2018-03-24T20:25:36.317Z,15.71
2018-03-24T20:28:02.997Z,15.69
2018-03-24T20:30:29.759Z,15.69
2018-03-24T20:32:56.399Z,15.68
2018-03-24T20:35:23.077Z,15.69
2018-03-24T20:37:49.752Z,15.68
2018-03-24T20:40:16.418Z,15.68
2018-03-24T20:42:44.283Z,15.69
2018-03-24T20:45:09.688Z,15.68
2018-03-24T20:47:36.319Z,15.71
2018-03-24T20:50:03.109Z,15.68
2018-03-24T20:52:29.743Z,15.69
2018-03-24T20:54:56.383Z,15.69
2018-03-24T20:57:23.043Z,15.71
2018-03-24T20:59:49.695Z,15.70
2018-03-24T21:02:16.450Z,15.71
2018-03-24T21:04:43.052Z,15.71
2018-03-24T21:07:09.764Z,15.73
2018-03-24T21:09:36.463Z,15.72
2018-03-24T21:12:09.278Z,15.72
2018-03-24T21:14:35.862Z,15.74
2018-03-24T21:17:02.656Z,15.75
2018-03-24T21:19:32.298Z,15.76
2018-03-24T21:22:01.806Z,15.76
2018-03-24T21:24:28.446Z,15.75
2018-03-24T21:26:56.501Z,15.76
2018-03-24T21:29:22.080Z,15.77
2018-03-24T21:31:48.708Z,15.76
2018-03-24T21:34:15.383Z,15.75
2018-03-24T21:36:42.089Z,15.76
2018-03-24T21:39:08.727Z,15.76
2018-03-24T21:41:35.415Z,15.77
2018-03-24T21:44:02.043Z,15.74
2018-03-24T21:46:29.083Z,15.76
2018-03-24T21:48:55.763Z,15.78
2018-03-24T21:51:22.400Z,15.79
2018-03-24T21:53:49.157Z,15.79
2018-03-24T21:56:15.801Z,15.79
2018-03-24T21:58:42.474Z,15.80
2018-03-24T22:01:09.112Z,15.78
2018-03-24T22:03:35.773Z,15.80
2018-03-24T22:06:02.542Z,15.80
2018-03-24T22:08:29.175Z,15.82
2018-03-24T22:10:57.196Z,15.83
2018-03-24T22:13:22.544Z,15.84
2018-03-24T22:15:49.175Z,15.84
2018-03-24T22:18:15.837Z,15.84
2018-03-24T22:20:42.541Z,15.85
2018-03-24T22:23:09.151Z,15.85
2018-03-24T22:25:35.922Z,15.85
2018-03-24T22:28:02.613Z,15.89
2018-03-24T22:30:29.517Z,15.88
2018-03-24T22:32:56.150Z,15.90
2018-03-24T22:35:27.690Z,15.90
2018-03-24T22:37:52.722Z,15.89
2018-03-24T22:40:19.360Z,15.89
2018-03-24T22:42:46.095Z,15.92
2018-03-24T22:45:13.352Z,15.93
2018-03-24T22:47:39.997Z,15.95
2018-03-24T22:50:06.674Z,15.95
2018-03-24T22:52:35.303Z,15.95
2018-03-24T22:55:01.991Z,15.96
2018-03-24T22:57:28.644Z,15.94
2018-03-24T22:59:55.284Z,15.97
2018-03-24T23:02:22.008Z,15.96
2018-03-24T23:04:48.645Z,15.98
2018-03-24T23:07:15.260Z,16.00
2018-03-24T23:09:41.918Z,16.00
2018-03-24T23:12:08.519Z,16.00
2018-03-24T23:14:35.234Z,16.03
2018-03-24T23:17:01.838Z,16.02
2018-03-24T23:19:28.508Z,16.03
2018-03-24T23:21:55.187Z,16.04
2018-03-24T23:24:23.262Z,16.06
2018-03-24T23:26:48.528Z,16.11
2018-03-24T23:29:15.296Z,16.09
2018-03-24T23:31:41.941Z,16.12
2018-03-24T23:34:08.538Z,16.11
2018-03-24T23:36:35.262Z,16.16
2018-03-24T23:39:01.960Z,16.14
2018-03-24T23:41:28.629Z,16.15
2018-03-24T23:43:56.289Z,16.16
2018-03-24T23:46:21.964Z,16.16
2018-03-24T23:48:48.676Z,16.20
2018-03-24T23:51:15.274Z,16.19
2018-03-24T23:53:41.986Z,16.21
2018-03-24T23:56:08.646Z,16.24
2018-03-24T23:58:35.373Z,16.25
